createdAt,value
2023-03-04T00:00:47.761Z,21.43
2023-03-04T00:03:15.949Z,23.43
2023-03-04T00:05:43.751Z,19.40
2023-03-04T00:08:11.723Z,24.90
2023-03-04T00:10:39.517Z,21.60
2023-03-04T00:13:07.291Z,18.83
2023-03-04T00:15:36.440Z,21.83
2023-03-04T00:18:04.525Z,21.10
2023-03-04T00:20:32.287Z,17.97
2023-03-04T00:22:59.978Z,25.40
2023-03-04T00:25:27.676Z,25.17
2023-03-04T00:27:55.368Z,26.43
2023-03-04T00:30:23.090Z,13.57
2023-03-04T00:32:52.266Z,18.63
2023-03-04T00:35:20.119Z,18.20
2023-03-04T00:37:47.925Z,26.17
2023-03-04T00:40:15.879Z,24.90
2023-03-04T00:42:43.561Z,21.40
2023-03-04T00:45:11.917Z,20.43
2023-03-04T00:47:39.598Z,28.33
2023-03-04T00:50:10.240Z,22.33
2023-03-04T00:52:37.933Z,20.93
2023-03-04T00:55:06.874Z,18.87
2023-03-04T00:57:34.548Z,23.07
2023-03-04T01:00:02.332Z,26.60
2023-03-04T01:02:30.181Z,18.50
2023-03-04T01:04:58.058Z,16.63
2023-03-04T01:07:27.158Z,21.97
2023-03-04T01:09:54.852Z,18.63
2023-03-04T01:12:22.550Z,22.43
2023-03-04T01:14:50.351Z,24.13
2023-03-04T01:17:18.205Z,18.10
2023-03-04T01:19:45.918Z,20.10
2023-03-04T01:22:15.098Z,19.37
2023-03-04T01:24:44.329Z,19.33
2023-03-04T01:27:12.381Z,25.53
2023-03-04T01:29:40.081Z,28.20
2023-03-04T01:32:07.855Z,19.50
2023-03-04T01:34:36.216Z,27.40
2023-03-04T01:37:03.932Z,27.27
2023-03-04T01:39:31.641Z,16.97
2023-03-04T01:42:00.733Z,22.07
2023-03-04T01:44:28.575Z,20.13
2023-03-04T01:46:57.230Z,21.07
2023-03-04T01:49:24.959Z,27.07
2023-03-04T01:51:54.705Z,16.20
2023-03-04T01:54:23.657Z,21.70
2023-03-04T01:56:52.629Z,22.23
2023-03-04T01:59:23.778Z,14.60
2023-03-04T02:01:54.351Z,16.07
2023-03-04T02:04:24.927Z,25.23
2023-03-04T02:06:53.287Z,25.30
2023-03-04T02:09:22.197Z,19.13
2023-03-04T02:11:51.295Z,23.77
2023-03-04T02:14:21.483Z,22.63
2023-03-04T02:16:49.769Z,24.03
2023-03-04T02:19:23.465Z,16.80
2023-03-04T02:21:51.209Z,18.60
2023-03-04T02:24:25.406Z,20.77
2023-03-04T02:26:54.602Z,17.90
2023-03-04T02:29:22.334Z,21.63
2023-03-04T02:31:51.866Z,23.93
2023-03-04T02:34:21.980Z,20.20
2023-03-04T02:36:52.169Z,17.23
2023-03-04T02:39:26.158Z,20.20
2023-03-04T02:41:57.058Z,14.63
2023-03-04T02:44:27.123Z,18.13
2023-03-04T02:46:55.935Z,22.47
2023-03-04T02:49:25.402Z,20.90
2023-03-04T02:51:54.270Z,17.23
2023-03-04T02:54:24.407Z,17.87
2023-03-04T02:56:54.206Z,25.80
2023-03-04T02:59:24.099Z,20.17
2023-03-04T03:01:52.405Z,15.93
2023-03-04T03:04:21.945Z,21.70
2023-03-04T03:06:49.886Z,23.20
2023-03-04T03:09:17.858Z,18.23
2023-03-04T03:11:45.640Z,29.20
2023-03-04T03:14:13.498Z,15.87
2023-03-04T03:16:45.870Z,16.10
2023-03-04T03:19:13.621Z,21.87
2023-03-04T03:21:41.339Z,27.80
2023-03-04T03:24:09.242Z,30.00
2023-03-04T03:26:37.010Z,22.30
2023-03-04T03:29:04.722Z,18.47
2023-03-04T03:31:32.447Z,24.83
2023-03-04T03:34:01.565Z,15.27
2023-03-04T03:36:29.350Z,23.37
2023-03-04T03:38:57.049Z,19.13
2023-03-04T03:41:24.762Z,17.20
2023-03-04T03:43:52.498Z,15.27
2023-03-04T03:46:20.221Z,15.70
2023-03-04T03:48:47.933Z,19.87
2023-03-04T03:51:17.023Z,22.90
2023-03-04T03:53:44.729Z,19.70
2023-03-04T03:56:12.494Z,14.47
2023-03-04T03:58:40.177Z,13.20
2023-03-04T04:01:09.255Z,13.10
2023-03-04T04:03:37.113Z,16.33
2023-03-04T04:06:05.053Z,12.17
2023-03-04T04:08:34.234Z,13.70
2023-03-04T04:11:01.968Z,17.20
2023-03-04T04:13:29.849Z,17.80
2023-03-04T04:15:58.057Z,16.20
2023-03-04T04:18:25.853Z,12.93
2023-03-04T04:20:53.825Z,14.13
2023-03-04T04:23:21.590Z,13.63
2023-03-04T04:25:50.639Z,15.10
2023-03-04T04:28:18.336Z,15.07
2023-03-04T04:30:46.079Z,14.43
2023-03-04T04:33:13.829Z,13.23
2023-03-04T04:35:41.615Z,10.60
2023-03-04T04:38:10.002Z,16.27
2023-03-04T04:40:38.169Z,12.43
2023-03-04T04:43:07.413Z,12.00
2023-03-04T04:45:35.596Z,11.57
2023-03-04T04:48:03.322Z,14.60
2023-03-04T04:50:32.959Z,10.13
2023-03-04T04:53:00.909Z,13.60
2023-03-04T04:55:28.819Z,28.73
2023-03-04T04:57:56.539Z,15.70
2023-03-04T05:00:25.852Z,12.07
2023-03-04T05:02:53.604Z,14.13
2023-03-04T05:05:21.356Z,9.43
2023-03-04T05:07:49.084Z,9.90
2023-03-04T05:10:17.489Z,11.80
2023-03-04T05:12:45.465Z,12.37
2023-03-04T05:15:13.232Z,10.63
2023-03-04T05:17:42.287Z,9.80
2023-03-04T05:20:11.607Z,18.60
2023-03-04T05:22:39.328Z,11.63
2023-03-04T05:25:08.059Z,9.23
2023-03-04T05:27:35.916Z,14.20
2023-03-04T05:30:03.730Z,13.13
2023-03-04T05:32:31.497Z,10.40
2023-03-04T05:35:00.553Z,19.83
2023-03-04T05:37:28.262Z,13.73
2023-03-04T05:39:55.951Z,14.67
2023-03-04T05:42:23.723Z,21.17
2023-03-04T05:44:51.476Z,11.47
2023-03-04T05:47:19.218Z,11.43
2023-03-04T05:49:46.975Z,12.17
2023-03-04T05:52:16.037Z,16.80
2023-03-04T05:54:43.734Z,13.13
2023-03-04T05:57:11.673Z,10.83
2023-03-04T05:59:39.433Z,11.30
2023-03-04T06:02:07.190Z,12.90
2023-03-04T06:04:35.218Z,12.73
2023-03-04T06:07:02.927Z,11.40
2023-03-04T06:09:31.975Z,13.70
2023-03-04T06:11:59.749Z,16.17
2023-03-04T06:14:27.613Z,16.67
2023-03-04T06:16:55.392Z,14.80
2023-03-04T06:19:23.155Z,9.57
2023-03-04T06:21:50.893Z,9.83
2023-03-04T06:24:18.781Z,10.50
2023-03-04T06:26:47.848Z,12.10
2023-03-04T06:29:16.411Z,12.57
2023-03-04T06:31:44.134Z,10.17
2023-03-04T06:34:12.040Z,13.00
2023-03-04T06:36:39.759Z,12.77
2023-03-04T06:39:08.580Z,12.77
2023-03-04T06:41:36.550Z,10.33
2023-03-04T06:44:06.364Z,11.53
2023-03-04T06:46:34.868Z,9.53
2023-03-04T06:49:02.821Z,13.97
2023-03-04T06:51:30.798Z,11.23
2023-03-04T06:53:58.478Z,9.63
2023-03-04T06:56:26.353Z,12.83
2023-03-04T06:58:54.104Z,11.07
2023-03-04T07:01:24.880Z,11.50
2023-03-04T07:03:53.834Z,13.20
2023-03-04T07:06:24.240Z,11.40
2023-03-04T07:08:52.898Z,14.30
2023-03-04T07:11:22.928Z,13.20
2023-03-04T07:13:51.421Z,12.47
2023-03-04T07:16:21.559Z,15.77
2023-03-04T07:18:51.511Z,12.53
2023-03-04T07:21:19.776Z,11.63
2023-03-04T07:23:48.065Z,9.97
2023-03-04T07:26:16.167Z,9.87
2023-03-04T07:28:44.214Z,9.20
2023-03-04T07:31:14.194Z,12.70
2023-03-04T07:33:42.020Z,12.00
2023-03-04T07:36:11.190Z,9.30
2023-03-04T07:38:38.906Z,8.40
2023-03-04T07:41:06.633Z,14.53
2023-03-04T07:43:34.350Z,9.90
2023-03-04T07:46:02.759Z,10.23
2023-03-04T07:48:30.738Z,11.70
2023-03-04T07:51:09.330Z,10.02
2023-03-04T07:53:39.289Z,10.10
2023-03-04T07:56:09.025Z,9.47
2023-03-04T07:58:36.738Z,10.00
2023-03-04T08:01:10.889Z,9.93
2023-03-04T08:03:38.622Z,10.10
2023-03-04T08:06:07.934Z,11.37
2023-03-04T08:08:35.717Z,8.90
2023-03-04T08:11:07.176Z,9.10
2023-03-04T08:13:35.301Z,13.40
2023-03-04T08:16:03.965Z,12.33
2023-03-04T08:18:31.832Z,8.27
2023-03-04T08:20:59.590Z,7.40
2023-03-04T08:23:27.406Z,8.20
2023-03-04T08:25:55.226Z,10.20
2023-03-04T08:28:24.271Z,11.47
2023-03-04T08:30:54.663Z,10.00
2023-03-04T08:33:22.454Z,9.90
2023-03-04T08:35:50.236Z,9.67
2023-03-04T08:38:18.032Z,11.77
2023-03-04T08:40:45.790Z,9.60
2023-03-04T08:43:13.538Z,12.13
2023-03-04T08:45:42.746Z,10.60
2023-03-04T08:48:10.529Z,10.00
2023-03-04T08:50:38.235Z,11.50
2023-03-04T08:53:06.013Z,7.93
2023-03-04T08:55:33.781Z,7.17
2023-03-04T08:58:01.522Z,13.23
2023-03-04T09:00:29.252Z,9.37
2023-03-04T09:02:58.359Z,8.23
2023-03-04T09:05:26.096Z,7.40
2023-03-04T09:07:54.195Z,8.43
2023-03-04T09:10:22.039Z,11.57
2023-03-04T09:12:49.816Z,6.87
2023-03-04T09:15:17.615Z,9.40
2023-03-04T09:17:45.356Z,8.20
2023-03-04T09:20:14.872Z,8.87
2023-03-04T09:22:43.373Z,13.13
2023-03-04T09:25:14.708Z,8.37
2023-03-04T09:27:43.093Z,8.52
2023-03-04T09:30:12.302Z,9.77
2023-03-04T09:32:41.320Z,7.80
2023-03-04T09:35:10.034Z,9.73
2023-03-04T09:37:41.494Z,8.27
2023-03-04T09:40:17.213Z,14.00
2023-03-04T09:42:48.774Z,7.00
2023-03-04T09:45:20.600Z,10.37
2023-03-04T09:47:50.364Z,8.33
2023-03-04T09:50:20.291Z,8.00
2023-03-04T09:53:04.436Z,8.30
2023-03-04T09:55:35.654Z,11.17
2023-03-04T09:58:11.444Z,9.70
2023-03-04T10:00:43.714Z,13.57
2023-03-04T10:03:19.618Z,7.13
2023-03-04T10:05:54.157Z,7.23
2023-03-04T10:08:39.215Z,8.27
2023-03-04T10:11:13.755Z,6.80
2023-03-04T10:13:48.824Z,7.20
2023-03-04T10:16:22.470Z,6.30
2023-03-04T10:18:54.101Z,8.57
2023-03-04T10:21:27.702Z,6.40
2023-03-04T10:23:59.794Z,7.13
2023-03-04T10:26:32.955Z,7.17
2023-03-04T10:29:02.852Z,11.53
2023-03-04T10:31:36.553Z,9.40
2023-03-04T10:34:04.921Z,9.50
2023-03-04T10:36:44.938Z,8.80
2023-03-04T10:39:18.952Z,7.83
2023-03-04T10:41:55.334Z,7.20
2023-03-04T10:44:24.403Z,11.53
2023-03-04T10:46:55.745Z,7.87
2023-03-04T10:49:25.243Z,9.23
2023-03-04T10:51:57.540Z,7.67
2023-03-04T10:54:32.298Z,14.30
2023-03-04T10:57:02.211Z,10.90
2023-03-04T10:59:40.039Z,13.03
2023-03-04T11:02:21.769Z,8.70
2023-03-04T11:04:55.085Z,8.97
2023-03-04T11:07:24.605Z,9.03
2023-03-04T11:09:54.654Z,9.70
2023-03-04T11:12:34.135Z,11.07
2023-03-04T11:15:03.489Z,11.73
2023-03-04T11:17:43.151Z,9.43
2023-03-04T11:20:29.206Z,8.17
2023-03-04T11:23:00.531Z,10.13
2023-03-04T11:25:34.295Z,8.20
2023-03-04T11:28:07.794Z,8.93
2023-03-04T11:30:42.281Z,12.30
2023-03-04T11:33:21.831Z,10.83
2023-03-04T11:35:59.997Z,14.27
2023-03-04T11:38:32.810Z,14.60
2023-03-04T11:41:06.987Z,9.43
2023-03-04T11:43:37.435Z,11.20
2023-03-04T11:46:26.634Z,11.73
2023-03-04T11:49:06.251Z,13.00
2023-03-04T11:51:40.617Z,11.97
2023-03-04T11:54:21.871Z,16.27
2023-03-04T11:56:54.161Z,11.60
2023-03-04T11:59:43.808Z,11.40
2023-03-04T12:02:18.315Z,8.80
2023-03-04T12:05:11.461Z,12.50
2023-03-04T12:08:13.964Z,12.80
2023-03-04T12:10:48.002Z,7.90
2023-03-04T12:13:51.221Z,12.03
2023-03-04T12:16:30.497Z,11.00
2023-03-04T12:19:17.348Z,14.67
2023-03-04T12:22:04.133Z,9.80
2023-03-04T12:24:53.063Z,9.63
2023-03-04T12:27:28.694Z,7.80
2023-03-04T12:30:02.301Z,8.17
2023-03-04T12:32:40.994Z,12.97
2023-03-04T12:35:36.376Z,6.90
2023-03-04T12:38:18.319Z,9.43
2023-03-04T12:40:53.037Z,10.27
2023-03-04T12:43:41.525Z,9.50
2023-03-04T12:46:22.495Z,9.07
2023-03-04T12:49:04.534Z,7.20
2023-03-04T12:51:37.072Z,10.13
2023-03-04T12:54:17.779Z,7.97
2023-03-04T12:56:51.324Z,10.20
2023-03-04T12:59:21.879Z,11.20
2023-03-04T13:01:57.625Z,11.70
2023-03-04T13:04:36.347Z,9.07
2023-03-04T13:07:14.078Z,17.40
2023-03-04T13:09:48.439Z,12.50
2023-03-04T13:12:19.725Z,9.33
2023-03-04T13:15:29.490Z,6.53
2023-03-04T13:17:59.162Z,7.70
2023-03-04T13:20:39.656Z,6.93
2023-03-04T13:23:27.032Z,9.23
2023-03-04T13:26:18.935Z,6.90
2023-03-04T13:28:46.916Z,11.33
2023-03-04T13:31:27.559Z,8.93
2023-03-04T13:34:01.553Z,9.93
2023-03-04T13:36:47.699Z,8.53
2023-03-04T13:39:34.145Z,10.33
2023-03-04T13:42:02.908Z,9.07
2023-03-04T13:44:58.414Z,8.47
2023-03-04T13:47:34.865Z,9.83
2023-03-04T13:50:38.985Z,11.00
2023-03-04T13:53:33.899Z,11.53
2023-03-04T13:56:12.899Z,7.57
2023-03-04T13:58:42.031Z,6.30
2023-03-04T14:01:25.548Z,13.40
2023-03-04T14:03:53.364Z,11.90
2023-03-04T14:06:23.474Z,9.30
2023-03-04T14:08:53.522Z,9.23
2023-03-04T14:11:28.825Z,10.63
2023-03-04T14:13:58.947Z,17.43
2023-03-04T14:16:28.975Z,12.43
2023-03-04T14:18:59.577Z,10.20
2023-03-04T14:21:27.577Z,10.47
2023-03-04T14:24:09.000Z,7.50
2023-03-04T14:26:36.737Z,9.43
2023-03-04T14:29:19.865Z,8.60
2023-03-04T14:31:47.726Z,11.80
2023-03-04T14:34:23.767Z,7.97
2023-03-04T14:36:51.639Z,11.23
2023-03-04T14:39:23.678Z,11.50
2023-03-04T14:41:53.061Z,11.33
2023-03-04T14:44:29.954Z,10.80
2023-03-04T14:47:08.044Z,10.50
2023-03-04T14:49:38.422Z,8.70
2023-03-04T14:52:07.373Z,7.80
2023-03-04T14:54:38.343Z,8.80
2023-03-04T14:57:25.999Z,11.43
2023-03-04T14:59:54.667Z,12.27
2023-03-04T15:02:31.107Z,16.40
2023-03-04T15:05:01.550Z,10.63
2023-03-04T15:07:34.450Z,11.03
2023-03-04T15:10:05.859Z,12.97
2023-03-04T15:12:36.102Z,10.80
2023-03-04T15:15:06.549Z,11.83
2023-03-04T15:17:38.641Z,13.13
2023-03-04T15:20:27.192Z,15.10
2023-03-04T15:23:00.698Z,12.90
2023-03-04T15:25:30.403Z,15.20
2023-03-04T15:27:59.173Z,16.30
2023-03-04T15:30:30.265Z,10.20
2023-03-04T15:32:59.169Z,14.10
2023-03-04T15:35:30.753Z,13.57
2023-03-04T15:37:59.191Z,15.73
2023-03-04T15:40:32.992Z,12.80
2023-03-04T15:43:03.312Z,10.23
2023-03-04T15:45:35.938Z,9.07
2023-03-04T15:48:07.810Z,12.70
2023-03-04T15:50:38.173Z,11.30
2023-03-04T15:53:09.143Z,10.20
2023-03-04T15:55:38.370Z,16.67
2023-03-04T15:58:07.265Z,11.20
2023-03-04T16:00:35.105Z,11.47
2023-03-04T16:03:02.837Z,11.80
2023-03-04T16:05:30.666Z,12.73
2023-03-04T16:07:58.430Z,10.70
2023-03-04T16:10:28.067Z,13.10
2023-03-04T16:12:57.614Z,9.63
2023-03-04T16:15:27.169Z,12.67
2023-03-04T16:17:55.299Z,12.70
2023-03-04T16:20:25.550Z,12.33
2023-03-04T16:22:55.993Z,12.83
2023-03-04T16:25:25.187Z,13.70
2023-03-04T16:27:53.926Z,13.03
2023-03-04T16:30:25.106Z,18.23
2023-03-04T16:32:52.854Z,13.37
2023-03-04T16:35:25.082Z,11.73
2023-03-04T16:37:53.539Z,11.70
2023-03-04T16:40:24.780Z,11.50
2023-03-04T16:42:52.635Z,13.03
2023-03-04T16:45:24.346Z,12.83
2023-03-04T16:47:52.386Z,13.87
2023-03-04T16:50:24.870Z,19.17
2023-03-04T16:52:52.631Z,11.50
2023-03-04T16:55:22.818Z,10.70
2023-03-04T16:57:50.590Z,13.53
2023-03-04T17:00:20.421Z,11.80
2023-03-04T17:02:55.633Z,12.90
2023-03-04T17:05:25.127Z,17.00
2023-03-04T17:07:52.854Z,13.93
2023-03-04T17:10:21.225Z,9.73
2023-03-04T17:12:49.753Z,19.03
2023-03-04T17:15:17.846Z,12.83
2023-03-04T17:17:46.034Z,19.40
2023-03-04T17:20:17.585Z,16.70
2023-03-04T17:22:45.729Z,18.80
2023-03-04T17:25:14.547Z,14.45
2023-03-04T17:27:42.781Z,16.47
2023-03-04T17:30:12.301Z,13.97
2023-03-04T17:32:43.130Z,9.47
2023-03-04T17:35:12.059Z,19.77
2023-03-04T17:37:41.519Z,10.00
2023-03-04T17:40:14.081Z,15.90
2023-03-04T17:42:42.092Z,12.67
2023-03-04T17:45:11.058Z,14.53
2023-03-04T17:47:39.191Z,13.10
2023-03-04T17:50:08.652Z,14.70
2023-03-04T17:52:38.909Z,11.27
2023-03-04T17:55:09.036Z,11.50
2023-03-04T17:57:38.013Z,12.77
2023-03-04T18:00:07.338Z,16.30
2023-03-04T18:02:35.107Z,17.33
2023-03-04T18:05:06.637Z,11.83
2023-03-04T18:07:34.399Z,13.97
2023-03-04T18:10:09.071Z,18.50
2023-03-04T18:12:38.148Z,10.67
2023-03-04T18:15:06.869Z,10.70
2023-03-04T18:17:34.588Z,16.50
2023-03-04T18:20:02.823Z,16.90
2023-03-04T18:22:31.398Z,14.13
2023-03-04T18:24:59.202Z,21.43
2023-03-04T18:27:27.951Z,12.50
2023-03-04T18:29:58.686Z,10.33
2023-03-04T18:32:26.607Z,17.13
2023-03-04T18:34:54.378Z,12.40
2023-03-04T18:37:22.109Z,15.40
2023-03-04T18:39:49.908Z,9.93
2023-03-04T18:42:17.666Z,13.00
2023-03-04T18:44:45.404Z,12.90
2023-03-04T18:47:14.864Z,11.13
2023-03-04T18:49:44.597Z,11.53
2023-03-04T18:52:12.350Z,15.00
2023-03-04T18:54:40.168Z,14.60
2023-03-04T18:57:10.374Z,18.10
2023-03-04T18:59:42.151Z,8.80
2023-03-04T19:02:19.952Z,15.10
2023-03-04T19:04:48.851Z,10.70
2023-03-04T19:07:16.608Z,10.07
2023-03-04T19:09:44.465Z,8.50
2023-03-04T19:12:12.237Z,19.93
2023-03-04T19:14:40.323Z,11.47
2023-03-04T19:17:08.034Z,9.50
2023-03-04T19:19:37.308Z,14.33
2023-03-04T19:22:06.726Z,15.50
2023-03-04T19:24:34.445Z,20.83
2023-03-04T19:27:02.723Z,11.33
2023-03-04T19:29:30.754Z,12.07
2023-03-04T19:31:58.917Z,12.73
2023-03-04T19:34:26.761Z,14.70
2023-03-04T19:36:55.808Z,12.50
2023-03-04T19:39:23.886Z,18.23
2023-03-04T19:41:51.700Z,10.13
2023-03-04T19:44:19.458Z,16.73
2023-03-04T19:46:47.303Z,11.80
2023-03-04T19:49:15.022Z,12.30
2023-03-04T19:51:43.558Z,13.30
2023-03-04T19:54:12.915Z,12.40
2023-03-04T19:56:40.655Z,15.80
2023-03-04T19:59:08.382Z,16.77
2023-03-04T20:01:38.508Z,18.27
2023-03-04T20:04:09.091Z,15.17
2023-03-04T20:06:37.832Z,13.63
2023-03-04T20:09:05.873Z,12.47
2023-03-04T20:11:44.107Z,15.53
2023-03-04T20:14:18.803Z,9.33
2023-03-04T20:16:46.547Z,16.53
2023-03-04T20:19:14.345Z,12.87
2023-03-04T20:21:42.188Z,12.77
2023-03-04T20:24:10.280Z,15.70
2023-03-04T20:26:40.319Z,10.30
2023-03-04T20:29:10.894Z,11.43
2023-03-04T20:31:39.897Z,14.93
2023-03-04T20:34:09.031Z,15.23
2023-03-04T20:36:38.444Z,19.10
2023-03-04T20:39:21.422Z,11.77
2023-03-04T20:41:55.056Z,14.83
2023-03-04T20:44:23.144Z,11.50
2023-03-04T20:46:51.316Z,14.03
2023-03-04T20:49:23.295Z,12.20
2023-03-04T20:51:52.239Z,12.23
2023-03-04T20:54:20.871Z,16.70
2023-03-04T20:56:52.002Z,16.77
2023-03-04T20:59:21.294Z,21.73
2023-03-04T21:01:49.527Z,10.40
2023-03-04T21:04:20.055Z,8.13
2023-03-04T21:06:48.380Z,10.30
2023-03-04T21:09:18.270Z,9.23
2023-03-04T21:11:46.388Z,8.90
2023-03-04T21:14:16.510Z,8.83
2023-03-04T21:16:46.019Z,8.70
2023-03-04T21:19:17.963Z,7.13
2023-03-04T21:21:46.917Z,8.37
2023-03-04T21:24:16.368Z,10.57
2023-03-04T21:26:45.643Z,9.27
2023-03-04T21:29:13.714Z,20.90
2023-03-04T21:31:44.048Z,8.73
2023-03-04T21:34:17.063Z,7.67
2023-03-04T21:36:45.107Z,12.77
2023-03-04T21:39:17.872Z,8.63
2023-03-04T21:41:46.099Z,10.47
2023-03-04T21:44:22.970Z,13.50
2023-03-04T21:46:59.363Z,10.17
2023-03-04T21:49:29.337Z,8.40
2023-03-04T21:51:57.178Z,9.07
2023-03-04T21:54:25.405Z,11.53
2023-03-04T21:56:53.140Z,17.33
2023-03-04T21:59:24.179Z,9.77
2023-03-04T22:01:52.297Z,17.30
2023-03-04T22:04:20.223Z,15.25
2023-03-04T22:06:50.209Z,13.87
2023-03-04T22:09:17.925Z,11.17
2023-03-04T22:11:45.852Z,11.27
2023-03-04T22:14:14.295Z,8.50
2023-03-04T22:16:54.423Z,12.40
2023-03-04T22:19:23.392Z,12.80
2023-03-04T22:21:53.420Z,10.10
2023-03-04T22:24:21.336Z,11.77
2023-03-04T22:26:50.460Z,17.97
2023-03-04T22:29:18.901Z,9.30
2023-03-04T22:31:49.740Z,14.57
2023-03-04T22:34:18.389Z,11.57
2023-03-04T22:36:47.222Z,11.30
2023-03-04T22:39:19.902Z,9.47
2023-03-04T22:41:47.849Z,10.23
2023-03-04T22:44:17.604Z,10.93
2023-03-04T22:46:45.334Z,8.37
2023-03-04T22:49:15.917Z,13.37
2023-03-04T22:51:45.707Z,12.50
2023-03-04T22:54:14.731Z,12.83
2023-03-04T22:56:44.247Z,14.43
2023-03-04T22:59:12.139Z,9.60
2023-03-04T23:01:40.341Z,8.60
2023-03-04T23:04:08.329Z,6.80
2023-03-04T23:06:37.550Z,10.47
2023-03-04T23:09:05.422Z,6.57
2023-03-04T23:11:36.155Z,8.27
2023-03-04T23:14:07.810Z,11.47
2023-03-04T23:16:39.203Z,10.20
2023-03-04T23:19:08.252Z,7.73
2023-03-04T23:21:36.830Z,11.90
2023-03-04T23:24:06.788Z,12.67
2023-03-04T23:26:38.606Z,7.77
2023-03-04T23:29:10.372Z,10.27
2023-03-04T23:31:38.239Z,8.87
2023-03-04T23:34:07.317Z,13.17
2023-03-04T23:36:37.353Z,13.23
2023-03-04T23:39:05.767Z,11.60
2023-03-04T23:41:34.930Z,15.93
2023-03-04T23:44:03.141Z,15.93
2023-03-04T23:46:32.327Z,16.53
2023-03-04T23:49:00.445Z,8.80
2023-03-04T23:51:30.161Z,15.27
2023-03-04T23:53:58.802Z,13.57
2023-03-04T23:56:28.841Z,10.57
2023-03-04T23:58:57.088Z,11.87
